sensor_id;sensor_type;location;lat;lon;timestamp;pressure;altitude;pressure_sealevel;temperature;humidity
13705;BME280;6924;52.122;9.952;2023-11-22T00:02:06;101605.00;;;1.93;100.00
13705;BME280;6924;52.122;9.952;2023-11-22T00:04:33;101598.41;;;1.87;100.00
13705;BME280;6924;52.122;9.952;2023-11-22T00:06:59;101603.06;;;1.93;100.00
13705;BME280;6924;52.122;9.952;2023-11-22T00:09:26;101603.97;;;1.87;100.00
13705;BME280;6924;52.122;9.952;2023-11-22T00:11:53;101615.75;;;1.89;100.00
13705;BME280;6924;52.122;9.952;2023-11-22T00:14:21;101608.84;;;1.92;100.00
13705;BME280;6924;52.122;9.952;2023-11-22T00:16:47;101612.13;;;1.89;100.00
13705;BME280;6924;52.122;9.952;2023-11-22T00:19:14;101621.97;;;1.91;100.00
13705;BME280;6924;52.122;9.952;2023-11-22T00:21:43;101615.63;;;1.84;100.00
13705;BME280;6924;52.122;9.952;2023-11-22T00:24:09;101624.59;;;1.86;100.00
13705;BME280;6924;52.122;9.952;2023-11-22T00:26:36;101634.03;;;1.85;100.00
13705;BME280;6924;52.122;9.952;2023-11-22T00:29:02;101633.13;;;1.91;100.00
13705;BME280;6924;52.122;9.952;2023-11-22T00:31:31;101638.84;;;1.78;100.00
13705;BME280;6924;52.122;9.952;2023-11-22T00:33:58;101635.34;;;1.64;100.00
13705;BME280;6924;52.122;9.952;2023-11-22T00:36:24;101631.38;;;1.53;100.00
13705;BME280;6924;52.122;9.952;2023-11-22T00:38:51;101629.19;;;1.55;100.00
13705;BME280;6924;52.122;9.952;2023-11-22T00:41:17;101622.66;;;1.68;100.00
13705;BME280;6924;52.122;9.952;2023-11-22T00:43:44;101631.38;;;1.72;100.00
13705;BME280;6924;52.122;9.952;2023-11-22T00:46:10;101642.88;;;1.63;100.00
13705;BME280;6924;52.122;9.952;2023-11-22T00:48:38;101640.28;;;1.62;100.00
13705;BME280;6924;52.122;9.952;2023-11-22T00:51:04;101631.47;;;1.65;100.00
13705;BME280;6924;52.122;9.952;2023-11-22T00:53:34;101635.63;;;1.56;100.00
13705;BME280;6924;52.122;9.952;2023-11-22T00:56:01;101635.56;;;1.62;100.00
13705;BME280;6924;52.122;9.952;2023-11-22T00:58:28;101637.28;;;1.63;100.00
13705;BME280;6924;52.122;9.952;2023-11-22T01:00:54;101643.31;;;1.60;100.00
13705;BME280;6924;52.122;9.952;2023-11-22T01:03:20;101637.16;;;1.52;100.00
13705;BME280;6924;52.122;9.952;2023-11-22T01:05:48;101644.75;;;1.44;100.00
13705;BME280;6924;52.122;9.952;2023-11-22T01:08:15;101649.00;;;1.47;100.00
13705;BME280;6924;52.122;9.952;2023-11-22T01:10:41;101646.00;;;1.49;100.00
13705;BME280;6924;52.122;9.952;2023-11-22T01:13:08;101643.84;;;1.51;100.00
13705;BME280;6924;52.122;9.952;2023-11-22T01:15:34;101654.19;;;1.43;100.00
13705;BME280;6924;52.122;9.952;2023-11-22T01:18:01;101665.00;;;1.33;100.00
13705;BME280;6924;52.122;9.952;2023-11-22T01:20:28;101669.56;;;1.21;100.00
13705;BME280;6924;52.122;9.952;2023-11-22T01:22:56;101670.72;;;1.13;100.00
13705;BME280;6924;52.122;9.952;2023-11-22T01:25:23;101675.28;;;1.01;100.00
13705;BME280;6924;52.122;9.952;2023-11-22T01:27:49;101673.13;;;1.03;100.00
13705;BME280;6924;52.122;9.952;2023-11-22T01:30:16;101685.81;;;0.99;100.00
13705;BME280;6924;52.122;9.952;2023-11-22T01:32:43;101684.97;;;0.98;100.00
13705;BME280;6924;52.122;9.952;2023-11-22T01:35:10;101693.31;;;0.98;100.00
13705;BME280;6924;52.122;9.952;2023-11-22T01:37:36;101695.69;;;1.01;100.00
13705;BME280;6924;52.122;9.952;2023-11-22T01:40:05;101703.34;;;1.06;100.00
13705;BME280;6924;52.122;9.952;2023-11-22T01:42:33;101702.69;;;1.11;100.00
13705;BME280;6924;52.122;9.952;2023-11-22T01:45:02;101697.19;;;0.97;100.00
13705;BME280;6924;52.122;9.952;2023-11-22T01:47:30;101695.72;;;0.88;100.00
13705;BME280;6924;52.122;9.952;2023-11-22T01:49:57;101695.16;;;0.79;100.00
13705;BME280;6924;52.122;9.952;2023-11-22T01:52:25;101694.06;;;0.80;100.00
13705;BME280;6924;52.122;9.952;2023-11-22T01:54:51;101697.69;;;0.81;100.00
13705;BME280;6924;52.122;9.952;2023-11-22T01:57:20;101696.66;;;0.75;100.00
13705;BME280;6924;52.122;9.952;2023-11-22T01:59:46;101688.69;;;0.79;100.00
13705;BME280;6924;52.122;9.952;2023-11-22T02:02:13;101681.22;;;0.79;100.00
13705;BME280;6924;52.122;9.952;2023-11-22T02:04:40;101680.09;;;0.87;100.00
13705;BME280;6924;52.122;9.952;2023-11-22T02:07:06;101686.75;;;0.86;100.00
13705;BME280;6924;52.122;9.952;2023-11-22T02:09:33;101690.81;;;0.83;100.00
13705;BME280;6924;52.122;9.952;2023-11-22T02:11:59;101694.06;;;0.80;100.00
13705;BME280;6924;52.122;9.952;2023-11-22T02:14:27;101700.06;;;0.84;100.00
13705;BME280;6924;52.122;9.952;2023-11-22T02:16:54;101695.97;;;0.87;100.00
13705;BME280;6924;52.122;9.952;2023-11-22T02:19:21;101698.97;;;0.85;100.00
13705;BME280;6924;52.122;9.952;2023-11-22T02:21:47;101696.66;;;0.75;100.00
13705;BME280;6924;52.122;9.952;2023-11-22T02:24:15;101701.13;;;0.83;100.00
13705;BME280;6924;52.122;9.952;2023-11-22T02:26:45;101708.03;;;0.74;100.00
13705;BME280;6924;52.122;9.952;2023-11-22T02:29:12;101703.16;;;0.63;100.00
13705;BME280;6924;52.122;9.952;2023-11-22T02:31:39;101708.13;;;0.54;100.00
13705;BME280;6924;52.122;9.952;2023-11-22T02:34:05;101697.22;;;0.46;100.00
13705;BME280;6924;52.122;9.952;2023-11-22T02:36:32;101700.69;;;0.34;100.00
13705;BME280;6924;52.122;9.952;2023-11-22T02:38:58;101715.06;;;0.31;100.00
13705;BME280;6924;52.122;9.952;2023-11-22T02:41:28;101698.38;;;0.25;100.00
13705;BME280;6924;52.122;9.952;2023-11-22T02:43:55;101704.31;;;0.35;100.00
13705;BME280;6924;52.122;9.952;2023-11-22T02:46:22;101700.25;;;0.31;100.00
13705;BME280;6924;52.122;9.952;2023-11-22T02:48:48;101701.38;;;0.23;100.00
13705;BME280;6924;52.122;9.952;2023-11-22T02:51:15;101703.31;;;0.23;100.00
13705;BME280;6924;52.122;9.952;2023-11-22T02:53:42;101711.44;;;0.17;100.00
13705;BME280;6924;52.122;9.952;2023-11-22T02:56:11;101705.88;;;0.11;100.00
13705;BME280;6924;52.122;9.952;2023-11-22T02:58:39;101707.59;;;0.12;100.00
13705;BME280;6924;52.122;9.952;2023-11-22T03:01:06;101702.06;;;0.05;100.00
13705;BME280;6924;52.122;9.952;2023-11-22T03:03:32;101719.41;;;0.01;100.00
13705;BME280;6924;52.122;9.952;2023-11-22T03:05:59;101715.34;;;-0.10;100.00
13705;BME280;6924;52.122;9.952;2023-11-22T03:08:25;101732.69;;;-0.15;100.00
13705;BME280;6924;52.122;9.952;2023-11-22T03:10:52;101741.88;;;-0.21;100.00
13705;BME280;6924;52.122;9.952;2023-11-22T03:13:34;101749.13;;;-0.20;100.00
13705;BME280;6924;52.122;9.952;2023-11-22T03:16:02;101745.09;;;-0.11;100.00
13705;BME280;6924;52.122;9.952;2023-11-22T03:18:29;101754.69;;;-0.07;100.00
13705;BME280;6924;52.122;9.952;2023-11-22T03:20:56;101764.31;;;-0.16;100.00
13705;BME280;6924;52.122;9.952;2023-11-22T03:23:23;101764.13;;;-0.21;100.00
13705;BME280;6924;52.122;9.952;2023-11-22T03:25:50;101763.03;;;-0.07;100.00
13705;BME280;6924;52.122;9.952;2023-11-22T03:28:16;101768.00;;;-0.15;100.00
13705;BME280;6924;52.122;9.952;2023-11-22T03:30:42;101769.47;;;-0.13;100.00
13705;BME280;6924;52.122;9.952;2023-11-22T03:33:10;101785.28;;;-0.07;100.00
13705;BME280;6924;52.122;9.952;2023-11-22T03:35:37;101780.81;;;-0.14;100.00
13705;BME280;6924;52.122;9.952;2023-11-22T03:38:03;101785.09;;;-0.12;100.00
13705;BME280;6924;52.122;9.952;2023-11-22T03:40:30;101786.38;;;-0.08;100.00
13705;BME280;6924;52.122;9.952;2023-11-22T03:42:56;101780.16;;;-0.10;100.00
13705;BME280;6924;52.122;9.952;2023-11-22T03:45:23;101787.88;;;-0.12;100.00
13705;BME280;6924;52.122;9.952;2023-11-22T03:47:49;101788.31;;;-0.22;100.00
13705;BME280;6924;52.122;9.952;2023-11-22T03:50:17;101799.84;;;-0.11;100.00
13705;BME280;6924;52.122;9.952;2023-11-22T03:52:43;101800.06;;;-0.06;100.00
13705;BME280;6924;52.122;9.952;2023-11-22T03:55:10;101797.94;;;0.09;100.00
13705;BME280;6924;52.122;9.952;2023-11-22T03:57:36;101799.22;;;0.00;100.00
13705;BME280;6924;52.122;9.952;2023-11-22T04:00:04;101810.09;;;0.08;100.00
13705;BME280;6924;52.122;9.952;2023-11-22T04:02:31;101812.91;;;0.08;100.00
13705;BME280;6924;52.122;9.952;2023-11-22T04:04:58;101815.47;;;0.16;100.00
13705;BME280;6924;52.122;9.952;2023-11-22T04:07:26;101818.69;;;0.20;100.00
13705;BME280;6924;52.122;9.952;2023-11-22T04:09:52;101812.84;;;0.41;100.00
13705;BME280;6924;52.122;9.952;2023-11-22T04:12:19;101814.53;;;0.63;100.00
13705;BME280;6924;52.122;9.952;2023-11-22T04:14:45;101815.38;;;0.70;100.00
13705;BME280;6924;52.122;9.952;2023-11-22T04:17:12;101817.72;;;0.79;100.00
13705;BME280;6924;52.122;9.952;2023-11-22T04:19:38;101816.41;;;0.82;100.00
13705;BME280;6924;52.122;9.952;2023-11-22T04:22:04;101822.41;;;0.79;100.00
13705;BME280;6924;52.122;9.952;2023-11-22T04:24:32;101821.31;;;0.87;100.00
13705;BME280;6924;52.122;9.952;2023-11-22T04:26:59;101820.03;;;0.82;100.00
13705;BME280;6924;52.122;9.952;2023-11-22T04:29:25;101833.34;;;0.80;100.00
13705;BME280;6924;52.122;9.952;2023-11-22T04:31:52;101834.19;;;0.81;100.00
13705;BME280;6924;52.122;9.952;2023-11-22T04:34:18;101839.34;;;0.77;100.00
13705;BME280;6924;52.122;9.952;2023-11-22T04:36:45;101842.78;;;0.73;100.00
13705;BME280;6924;52.122;9.952;2023-11-22T04:39:13;101847.47;;;0.72;100.00
13705;BME280;6924;52.122;9.952;2023-11-22T04:41:41;101847.94;;;0.69;100.00
13705;BME280;6924;52.122;9.952;2023-11-22T04:44:08;101860.13;;;0.68;100.00
13705;BME280;6924;52.122;9.952;2023-11-22T04:46:34;101861.66;;;0.64;100.00
13705;BME280;6924;52.122;9.952;2023-11-22T04:49:01;101867.00;;;0.59;100.00
13705;BME280;6924;52.122;9.952;2023-11-22T04:51:27;101864.66;;;0.56;100.00
13705;BME280;6924;52.122;9.952;2023-11-22T04:53:54;101860.59;;;0.58;100.00
13705;BME280;6924;52.122;9.952;2023-11-22T04:56:21;101861.03;;;0.62;100.00
13705;BME280;6924;52.122;9.952;2023-11-22T04:58:49;101845.81;;;0.58;100.00
13705;BME280;6924;52.122;9.952;2023-11-22T05:01:15;101852.88;;;0.60;100.00
13705;BME280;6924;52.122;9.952;2023-11-22T05:03:42;101849.00;;;0.55;100.00
13705;BME280;6924;52.122;9.952;2023-11-22T05:06:08;101860.78;;;0.57;100.00
13705;BME280;6924;52.122;9.952;2023-11-22T05:08:35;101853.72;;;0.61;100.00
13705;BME280;6924;52.122;9.952;2023-11-22T05:11:01;101864.84;;;0.61;100.00
13705;BME280;6924;52.122;9.952;2023-11-22T05:13:28;101864.66;;;0.63;100.00
13705;BME280;6924;52.122;9.952;2023-11-22T05:15:56;101861.41;;;0.66;100.00
13705;BME280;6924;52.122;9.952;2023-11-22T05:18:22;101863.78;;;0.69;100.00
13705;BME280;6924;52.122;9.952;2023-11-22T05:20:50;101861.22;;;0.60;100.00
13705;BME280;6924;52.122;9.952;2023-11-22T05:23:16;101857.81;;;0.58;100.00
13705;BME280;6924;52.122;9.952;2023-11-22T05:25:43;101855.88;;;0.52;100.00
13705;BME280;6924;52.122;9.952;2023-11-22T05:28:10;101868.50;;;0.55;100.00
13705;BME280;6924;52.122;9.952;2023-11-22T05:30:36;101868.97;;;0.38;100.00
13705;BME280;6924;52.122;9.952;2023-11-22T05:33:04;101864.44;;;0.37;100.00
13705;BME280;6924;52.122;9.952;2023-11-22T05:35:31;101860.41;;;0.40;100.00
13705;BME280;6924;52.122;9.952;2023-11-22T05:37:58;101867.69;;;0.34;100.00
13705;BME280;6924;52.122;9.952;2023-11-22T05:40:25;101873.88;;;0.36;100.00
13705;BME280;6924;52.122;9.952;2023-11-22T05:42:51;101878.16;;;0.39;100.00
13705;BME280;6924;52.122;9.952;2023-11-22T05:45:18;101876.47;;;0.38;100.00
13705;BME280;6924;52.122;9.952;2023-11-22T05:47:46;101868.53;;;0.41;100.00
13705;BME280;6924;52.122;9.952;2023-11-22T05:50:14;101874.34;;;0.40;100.00
13705;BME280;6924;52.122;9.952;2023-11-22T05:52:41;101875.81;;;0.43;100.00
13705;BME280;6924;52.122;9.952;2023-11-22T05:55:08;101874.31;;;0.47;100.00
13705;BME280;6924;52.122;9.952;2023-11-22T05:57:34;101875.38;;;0.46;100.00
13705;BME280;6924;52.122;9.952;2023-11-22T06:00:03;101882.25;;;0.43;100.00
13705;BME280;6924;52.122;9.952;2023-11-22T06:02:31;101888.66;;;0.44;100.00
13705;BME280;6924;52.122;9.952;2023-11-22T06:04:57;101898.94;;;0.43;100.00
13705;BME280;6924;52.122;9.952;2023-11-22T06:07:25;101898.09;;;0.43;100.00
13705;BME280;6924;52.122;9.952;2023-11-22T06:09:52;101914.34;;;0.39;100.00
13705;BME280;6924;52.122;9.952;2023-11-22T06:12:19;101917.34;;;0.37;100.00
13705;BME280;6924;52.122;9.952;2023-11-22T06:14:45;101924.44;;;0.27;100.00
13705;BME280;6924;52.122;9.952;2023-11-22T06:17:12;101927.63;;;0.30;100.00
13705;BME280;6924;52.122;9.952;2023-11-22T06:19:39;101924.44;;;0.27;100.00
13705;BME280;6924;52.122;9.952;2023-11-22T06:22:06;101943.69;;;0.28;100.00
13705;BME280;6924;52.122;9.952;2023-11-22T06:24:34;101945.16;;;0.31;100.00
13705;BME280;6924;52.122;9.952;2023-11-22T06:27:01;101942.84;;;0.34;100.00
13705;BME280;6924;52.122;9.952;2023-11-22T06:29:27;101941.78;;;0.35;100.00
13705;BME280;6924;52.122;9.952;2023-11-22T06:31:54;101937.47;;;0.33;100.00
13705;BME280;6924;52.122;9.952;2023-11-22T06:34:21;101932.78;;;0.27;100.00
13705;BME280;6924;52.122;9.952;2023-11-22T06:36:47;101944.13;;;0.25;100.00
13705;BME280;6924;52.122;9.952;2023-11-22T06:39:14;101937.25;;;0.28;100.00
13705;BME280;6924;52.122;9.952;2023-11-22T06:41:42;101936.63;;;0.26;100.00
13705;BME280;6924;52.122;9.952;2023-11-22T06:44:08;101934.47;;;0.14;100.00
13705;BME280;6924;52.122;9.952;2023-11-22T06:46:36;101935.31;;;0.15;100.00
13705;BME280;6924;52.122;9.952;2023-11-22T06:49:02;101941.31;;;0.12;100.00
13705;BME280;6924;52.122;9.952;2023-11-22T06:51:30;101938.09;;;0.15;100.00
13705;BME280;6924;52.122;9.952;2023-11-22T06:53:57;101930.41;;;0.17;100.00
13705;BME280;6924;52.122;9.952;2023-11-22T06:56:23;101935.31;;;0.22;100.00
13705;BME280;6924;52.122;9.952;2023-11-22T06:58:51;101922.47;;;0.07;100.00
13705;BME280;6924;52.122;9.952;2023-11-22T07:01:17;101923.13;;;0.09;100.00
13705;BME280;6924;52.122;9.952;2023-11-22T07:03:44;101917.97;;;0.13;100.00
13705;BME280;6924;52.122;9.952;2023-11-22T07:06:10;101914.78;;;0.16;100.00
13705;BME280;6924;52.122;9.952;2023-11-22T07:08:37;101919.25;;;0.17;100.00
13705;BME280;6924;52.122;9.952;2023-11-22T07:11:04;101919.47;;;0.15;100.00
13705;BME280;6924;52.122;9.952;2023-11-22T07:13:34;101922.25;;;0.09;100.00
13705;BME280;6924;52.122;9.952;2023-11-22T07:16:05;101930.84;;;0.14;100.00
13705;BME280;6924;52.122;9.952;2023-11-22T07:18:32;101932.13;;;0.18;100.00
13705;BME280;6924;52.122;9.952;2023-11-22T07:21:01;101925.28;;;0.20;100.00
13705;BME280;6924;52.122;9.952;2023-11-22T07:23:28;101925.47;;;0.19;100.00
13705;BME280;6924;52.122;9.952;2023-11-22T07:25:57;101922.50;;;0.20;100.00
13705;BME280;6924;52.122;9.952;2023-11-22T07:28:26;101923.34;;;0.21;100.00
13705;BME280;6924;52.122;9.952;2023-11-22T07:30:53;101919.47;;;0.22;100.00
13705;BME280;6924;52.122;9.952;2023-11-22T07:33:22;101919.91;;;0.26;100.00
13705;BME280;6924;52.122;9.952;2023-11-22T07:35:51;101921.00;;;0.31;100.00
13705;BME280;6924;52.122;9.952;2023-11-22T07:38:18;101911.56;;;0.39;100.00
13705;BME280;6924;52.122;9.952;2023-11-22T07:40:45;101903.22;;;0.46;100.00
13705;BME280;6924;52.122;9.952;2023-11-22T07:43:13;101900.03;;;0.49;100.00
13705;BME280;6924;52.122;9.952;2023-11-22T07:45:40;101895.72;;;0.53;100.00
13705;BME280;6924;52.122;9.952;2023-11-22T07:48:08;101903.44;;;0.57;100.00
13705;BME280;6924;52.122;9.952;2023-11-22T07:50:38;101886.94;;;0.56;100.00
13705;BME280;6924;52.122;9.952;2023-11-22T07:53:09;101900.00;;;0.62;100.00
13705;BME280;6924;52.122;9.952;2023-11-22T07:55:37;101906.63;;;0.68;100.00
13705;BME280;6924;52.122;9.952;2023-11-22T07:58:03;101905.75;;;0.74;100.00
13705;BME280;6924;52.122;9.952;2023-11-22T08:00:31;101915.63;;;0.70;100.00
13705;BME280;6924;52.122;9.952;2023-11-22T08:02:59;101922.66;;;0.79;100.00
13705;BME280;6924;52.122;9.952;2023-11-22T08:05:27;101934.69;;;0.86;100.00
13705;BME280;6924;52.122;9.952;2023-11-22T08:07:55;101922.66;;;0.92;100.00
13705;BME280;6924;52.122;9.952;2023-11-22T08:10:22;101916.41;;;0.97;100.00
13705;BME280;6924;52.122;9.952;2023-11-22T08:12:50;101933.56;;;1.00;100.00
13705;BME280;6924;52.122;9.952;2023-11-22T08:15:17;101918.13;;;1.05;100.00
13705;BME280;6924;52.122;9.952;2023-11-22T08:17:45;101922.41;;;1.07;100.00
13705;BME280;6924;52.122;9.952;2023-11-22T08:20:22;101937.81;;;1.10;100.00
13705;BME280;6924;52.122;9.952;2023-11-22T08:22:51;101946.41;;;1.08;100.00
13705;BME280;6924;52.122;9.952;2023-11-22T08:25:20;101946.63;;;1.13;100.00
13705;BME280;6924;52.122;9.952;2023-11-22T08:27:47;101950.03;;;1.22;100.00
13705;BME280;6924;52.122;9.952;2023-11-22T08:30:13;101960.94;;;1.30;100.00
13705;BME280;6924;52.122;9.952;2023-11-22T08:32:41;101980.44;;;1.37;100.00
13705;BME280;6924;52.122;9.952;2023-11-22T08:35:08;101976.75;;;1.43;100.00
13705;BME280;6924;52.122;9.952;2023-11-22T08:37:35;101979.97;;;1.47;100.00
13705;BME280;6924;52.122;9.952;2023-11-22T08:40:05;101984.03;;;1.51;100.00
13705;BME280;6924;52.122;9.952;2023-11-22T08:42:33;101999.88;;;1.57;100.00
13705;BME280;6924;52.122;9.952;2023-11-22T08:45:01;102003.91;;;1.61;100.00
13705;BME280;6924;52.122;9.952;2023-11-22T08:47:28;102005.66;;;1.62;100.00
13705;BME280;6924;52.122;9.952;2023-11-22T08:49:54;102013.78;;;1.70;100.00
13705;BME280;6924;52.122;9.952;2023-11-22T08:52:21;102012.03;;;1.76;100.00
13705;BME280;6924;52.122;9.952;2023-11-22T08:54:48;102011.59;;;1.79;100.00
13705;BME280;6924;52.122;9.952;2023-11-22T08:57:15;102016.06;;;1.86;100.00
13705;BME280;6924;52.122;9.952;2023-11-22T08:59:43;101997.16;;;1.89;100.00
13705;BME280;6924;52.122;9.952;2023-11-22T09:02:09;101996.28;;;1.95;100.00
13705;BME280;6924;52.122;9.952;2023-11-22T09:04:37;102000.09;;;2.00;100.00
13705;BME280;6924;52.122;9.952;2023-11-22T09:07:06;102001.38;;;2.04;100.00
13705;BME280;6924;52.122;9.952;2023-11-22T09:09:33;101987.88;;;2.01;100.00
13705;BME280;6924;52.122;9.952;2023-11-22T09:12:01;101979.94;;;1.98;97.59
13705;BME280;6924;52.122;9.952;2023-11-22T09:14:28;101981.25;;;1.96;97.23
13705;BME280;6924;52.122;9.952;2023-11-22T09:16:55;101972.50;;;1.85;95.68
13705;BME280;6924;52.122;9.952;2023-11-22T09:19:22;101973.44;;;1.73;93.60
13705;BME280;6924;52.122;9.952;2023-11-22T09:21:49;101973.25;;;1.68;91.30
13705;BME280;6924;52.122;9.952;2023-11-22T09:24:15;101982.25;;;1.63;90.77
13705;BME280;6924;52.122;9.952;2023-11-22T09:26:42;101979.09;;;1.53;90.77
13705;BME280;6924;52.122;9.952;2023-11-22T09:29:09;101964.03;;;1.60;91.70
13705;BME280;6924;52.122;9.952;2023-11-22T09:31:38;101962.09;;;1.61;92.16
13705;BME280;6924;52.122;9.952;2023-11-22T09:34:06;101967.44;;;1.62;88.41
13705;BME280;6924;52.122;9.952;2023-11-22T09:36:33;101982.47;;;1.68;86.61
13705;BME280;6924;52.122;9.952;2023-11-22T09:39:00;101977.59;;;1.50;86.96
13705;BME280;6924;52.122;9.952;2023-11-22T09:41:28;101982.72;;;1.53;87.17
13705;BME280;6924;52.122;9.952;2023-11-22T09:43:55;101983.13;;;1.63;86.10
13705;BME280;6924;52.122;9.952;2023-11-22T09:46:22;101980.13;;;1.58;83.07
13705;BME280;6924;52.122;9.952;2023-11-22T09:48:49;101985.88;;;1.70;84.85
13705;BME280;6924;52.122;9.952;2023-11-22T09:51:21;101980.72;;;1.74;84.32
13705;BME280;6924;52.122;9.952;2023-11-22T09:53:53;101976.22;;;1.73;83.83
13705;BME280;6924;52.122;9.952;2023-11-22T09:56:22;101965.09;;;1.66;81.98
13705;BME280;6924;52.122;9.952;2023-11-22T09:58:52;101948.16;;;1.68;83.10
13705;BME280;6924;52.122;9.952;2023-11-22T10:01:21;101941.28;;;1.63;83.30
13705;BME280;6924;52.122;9.952;2023-11-22T10:03:48;101952.84;;;1.67;82.83
13705;BME280;6924;52.122;9.952;2023-11-22T10:06:15;101960.22;;;1.55;83.37
13705;BME280;6924;52.122;9.952;2023-11-22T10:08:44;101978.44;;;1.57;82.47
13705;BME280;6924;52.122;9.952;2023-11-22T10:11:14;101973.75;;;1.44;81.02
13705;BME280;6924;52.122;9.952;2023-11-22T10:13:44;101974.19;;;1.48;81.39
13705;BME280;6924;52.122;9.952;2023-11-22T10:16:14;101974.25;;;1.28;82.25
13705;BME280;6924;52.122;9.952;2023-11-22T10:18:41;101975.94;;;1.29;82.25
13705;BME280;6924;52.122;9.952;2023-11-22T10:21:22;101972.50;;;1.34;81.17
13705;BME280;6924;52.122;9.952;2023-11-22T10:23:51;101991.84;;;1.22;82.88
13705;BME280;6924;52.122;9.952;2023-11-22T10:26:19;102001.00;;;1.36;84.52
13705;BME280;6924;52.122;9.952;2023-11-22T10:28:45;101995.19;;;1.51;85.61
13705;BME280;6924;52.122;9.952;2023-11-22T10:31:12;101992.59;;;1.56;82.10
13705;BME280;6924;52.122;9.952;2023-11-22T10:33:39;101998.13;;;1.62;82.34
13705;BME280;6924;52.122;9.952;2023-11-22T10:36:07;102004.13;;;1.73;81.62
13705;BME280;6924;52.122;9.952;2023-11-22T10:38:34;102005.16;;;1.72;79.56
13705;BME280;6924;52.122;9.952;2023-11-22T10:41:04;102016.28;;;1.85;80.08
13705;BME280;6924;52.122;9.952;2023-11-22T10:43:34;102025.94;;;1.82;80.67
13705;BME280;6924;52.122;9.952;2023-11-22T10:46:04;102020.09;;;1.97;80.95
13705;BME280;6924;52.122;9.952;2023-11-22T10:48:32;102027.13;;;2.06;79.04
13705;BME280;6924;52.122;9.952;2023-11-22T10:51:00;102018.66;;;1.81;77.32
13705;BME280;6924;52.122;9.952;2023-11-22T10:53:32;102008.38;;;1.82;76.87
13705;BME280;6924;52.122;9.952;2023-11-22T10:56:11;101994.56;;;1.94;77.40
13705;BME280;6924;52.122;9.952;2023-11-22T10:58:44;101985.31;;;2.00;82.02
13705;BME280;6924;52.122;9.952;2023-11-22T11:01:13;101986.34;;;2.05;81.30
13705;BME280;6924;52.122;9.952;2023-11-22T11:03:46;101993.22;;;2.10;78.54
13705;BME280;6924;52.122;9.952;2023-11-22T11:06:19;102003.03;;;2.19;77.60
13705;BME280;6924;52.122;9.952;2023-11-22T11:08:48;101983.69;;;2.17;76.47
13705;BME280;6924;52.122;9.952;2023-11-22T11:11:17;101971.91;;;2.15;77.03
13705;BME280;6924;52.122;9.952;2023-11-22T11:13:46;101973.50;;;1.98;77.41
13705;BME280;6924;52.122;9.952;2023-11-22T11:16:13;101977.47;;;2.15;78.08
13705;BME280;6924;52.122;9.952;2023-11-22T11:18:41;101963.34;;;2.10;78.30
13705;BME280;6924;52.122;9.952;2023-11-22T11:21:08;101959.97;;;2.01;77.61
13705;BME280;6924;52.122;9.952;2023-11-22T11:23:38;101959.94;;;2.08;77.17
13705;BME280;6924;52.122;9.952;2023-11-22T11:26:09;101941.81;;;2.17;77.50
13705;BME280;6924;52.122;9.952;2023-11-22T11:28:44;101938.28;;;2.03;75.81
13705;BME280;6924;52.122;9.952;2023-11-22T11:31:11;101944.03;;;2.09;78.42
13705;BME280;6924;52.122;9.952;2023-11-22T11:33:53;101953.88;;;2.11;79.40
13705;BME280;6924;52.122;9.952;2023-11-22T11:36:22;101935.81;;;2.14;78.25
13705;BME280;6924;52.122;9.952;2023-11-22T11:38:49;101926.81;;;2.12;78.85
13705;BME280;6924;52.122;9.952;2023-11-22T11:41:15;101938.94;;;1.99;78.93
13705;BME280;6924;52.122;9.952;2023-11-22T11:43:45;101939.38;;;1.96;79.50
13705;BME280;6924;52.122;9.952;2023-11-22T11:46:12;101918.97;;;2.02;79.02
13705;BME280;6924;52.122;9.952;2023-11-22T11:48:42;101900.94;;;1.98;80.10
13705;BME280;6924;52.122;9.952;2023-11-22T11:51:09;101884.72;;;1.88;81.23
13705;BME280;6924;52.122;9.952;2023-11-22T11:53:37;101880.47;;;1.79;81.96
13705;BME280;6924;52.122;9.952;2023-11-22T11:56:05;101881.25;;;1.93;80.67
13705;BME280;6924;52.122;9.952;2023-11-22T11:58:32;101885.25;;;2.03;82.11
13705;BME280;6924;52.122;9.952;2023-11-22T12:00:59;101888.38;;;2.14;82.95
13705;BME280;6924;52.122;9.952;2023-11-22T12:03:27;101890.25;;;2.20;83.77
13705;BME280;6924;52.122;9.952;2023-11-22T12:05:54;101888.94;;;2.22;80.09
13705;BME280;6924;52.122;9.952;2023-11-22T12:08:21;101872.78;;;2.31;82.84
13705;BME280;6924;52.122;9.952;2023-11-22T12:10:48;101855.34;;;2.36;83.09
13705;BME280;6924;52.122;9.952;2023-11-22T12:13:17;101834.19;;;2.46;84.18
13705;BME280;6924;52.122;9.952;2023-11-22T12:15:44;101819.44;;;2.39;81.90
13705;BME280;6924;52.122;9.952;2023-11-22T12:18:12;101813.44;;;2.36;81.17
13705;BME280;6924;52.122;9.952;2023-11-22T12:20:38;101824.09;;;2.45;81.35
13705;BME280;6924;52.122;9.952;2023-11-22T12:23:05;101820.41;;;2.52;82.94
13705;BME280;6924;52.122;9.952;2023-11-22T12:25:32;101812.72;;;2.22;81.33
13705;BME280;6924;52.122;9.952;2023-11-22T12:27:59;101776.00;;;2.25;80.50
13705;BME280;6924;52.122;9.952;2023-11-22T12:30:30;101767.63;;;2.25;81.40
13705;BME280;6924;52.122;9.952;2023-11-22T12:32:57;101774.44;;;2.29;82.56
13705;BME280;6924;52.122;9.952;2023-11-22T12:35:31;101768.00;;;2.28;84.39
13705;BME280;6924;52.122;9.952;2023-11-22T12:37:59;101779.16;;;2.28;85.37
13705;BME280;6924;52.122;9.952;2023-11-22T12:40:27;101772.16;;;2.19;83.57
13705;BME280;6924;52.122;9.952;2023-11-22T12:42:57;101750.00;;;2.24;85.57
13705;BME280;6924;52.122;9.952;2023-11-22T12:45:25;101745.16;;;2.38;87.63
13705;BME280;6924;52.122;9.952;2023-11-22T12:48:08;101736.06;;;2.43;87.55
13705;BME280;6924;52.122;9.952;2023-11-22T12:50:55;101755.38;;;2.44;85.11
13705;BME280;6924;52.122;9.952;2023-11-22T12:53:34;101760.56;;;2.41;85.28
13705;BME280;6924;52.122;9.952;2023-11-22T12:56:14;101788.94;;;2.38;86.43
13705;BME280;6924;52.122;9.952;2023-11-22T12:58:45;101826.97;;;2.39;86.46
13705;BME280;6924;52.122;9.952;2023-11-22T13:01:15;101839.94;;;2.52;86.90
13705;BME280;6924;52.122;9.952;2023-11-22T13:03:52;101823.50;;;2.62;85.56
13705;BME280;6924;52.122;9.952;2023-11-22T13:06:20;101788.84;;;2.69;86.75